createdAt,value
2019-05-20T00:00:56.253Z,17.35
2019-05-20T00:03:27.331Z,18.35
2019-05-20T00:05:58.497Z,17.90
2019-05-20T00:08:29.312Z,17.55
2019-05-20T00:11:00.420Z,19.23
2019-05-20T00:13:31.564Z,17.77
2019-05-20T00:16:02.431Z,17.82
2019-05-20T00:18:33.591Z,17.92
2019-05-20T00:21:04.916Z,17.23
2019-05-20T00:23:37.105Z,18.37
2019-05-20T00:26:08.191Z,16.93
2019-05-20T00:28:39.346Z,17.45
2019-05-20T00:31:11.173Z,17.90
2019-05-20T00:33:42.383Z,17.05
2019-05-20T00:36:16.648Z,16.25
2019-05-20T00:45:20.586Z,17.27
2019-05-20T00:47:51.518Z,18.30
2019-05-20T00:50:23.845Z,17.30
2019-05-20T00:52:58.317Z,16.35
2019-05-20T00:55:32.042Z,17.37
2019-05-20T00:58:04.130Z,16.37
2019-05-20T01:00:36.175Z,17.52
2019-05-20T01:03:07.488Z,16.97
2019-05-20T01:05:39.450Z,16.40
2019-05-20T01:08:10.628Z,16.20
2019-05-20T01:10:41.661Z,16.65
2019-05-20T01:13:12.701Z,16.52
2019-05-20T01:15:47.526Z,17.98
2019-05-20T01:18:18.707Z,15.38
2019-05-20T01:20:57.457Z,16.95
2019-05-20T01:23:30.139Z,16.82
2019-05-20T01:26:01.237Z,16.75
2019-05-20T01:28:32.142Z,16.75
2019-05-20T01:31:03.647Z,17.32
2019-05-20T01:33:34.713Z,15.98
2019-05-20T01:36:06.205Z,16.70
2019-05-20T01:38:37.489Z,15.72
2019-05-20T01:41:08.513Z,16.40
2019-05-20T01:43:41.072Z,15.58
2019-05-20T01:46:12.664Z,15.00
2019-05-20T01:48:43.922Z,15.90
2019-05-20T01:51:15.129Z,16.30
2019-05-20T01:53:48.753Z,15.63
2019-05-20T01:56:19.726Z,16.02
2019-05-20T01:58:50.848Z,15.75
2019-05-20T02:01:22.598Z,16.00
2019-05-20T02:03:56.421Z,16.12
2019-05-20T02:06:29.838Z,15.80
2019-05-20T02:09:00.219Z,16.27
2019-05-20T02:11:31.306Z,15.15
2019-05-20T02:14:04.872Z,15.05
2019-05-20T02:16:36.487Z,16.02
2019-05-20T02:19:07.996Z,15.43
2019-05-20T02:21:39.663Z,16.75
2019-05-20T02:24:15.757Z,15.20
2019-05-20T02:26:46.905Z,14.47
2019-05-20T02:29:20.702Z,14.40
2019-05-20T02:31:52.138Z,16.50
2019-05-20T02:37:55.822Z,13.70
2019-05-20T02:46:52.282Z,13.00
2019-05-20T02:49:23.587Z,14.25
2019-05-20T02:51:54.817Z,14.20
2019-05-20T02:54:29.607Z,13.93
2019-05-20T02:57:01.016Z,12.58
2019-05-20T02:59:32.644Z,13.83
2019-05-20T03:02:04.999Z,13.50
2019-05-20T03:04:36.377Z,14.20
2019-05-20T03:07:07.575Z,13.68
2019-05-20T03:09:41.625Z,13.38
2019-05-20T03:12:14.020Z,13.65
2019-05-20T03:14:47.233Z,17.55
2019-05-20T03:17:17.651Z,13.98
2019-05-20T03:19:49.413Z,14.15
2019-05-20T03:22:20.738Z,14.23
2019-05-20T03:24:54.963Z,14.55
2019-05-20T03:27:26.166Z,14.07
2019-05-20T03:29:57.136Z,15.28
2019-05-20T03:32:28.033Z,13.85
2019-05-20T03:35:02.734Z,14.65
2019-05-20T03:37:36.836Z,15.05
2019-05-20T03:40:08.728Z,14.28
2019-05-20T03:42:45.681Z,14.83
2019-05-20T03:45:17.229Z,13.22
2019-05-20T03:47:50.916Z,14.58
2019-05-20T03:50:22.235Z,14.73
2019-05-20T03:52:53.451Z,14.18
2019-05-20T03:55:25.978Z,14.60
2019-05-20T03:57:59.452Z,13.60
2019-05-20T04:00:37.026Z,14.78
2019-05-20T04:03:20.381Z,13.93
2019-05-20T04:05:44.050Z,14.73
2019-05-20T04:08:15.551Z,15.25
2019-05-20T04:10:47.707Z,14.85
2019-05-20T04:13:20.036Z,14.10
2019-05-20T04:15:51.357Z,15.05
2019-05-20T04:18:22.730Z,14.05
2019-05-20T04:21:07.011Z,14.30
2019-05-20T04:23:38.313Z,13.72
2019-05-20T04:26:09.802Z,13.90
2019-05-20T04:28:41.885Z,12.88
2019-05-20T04:31:14.211Z,13.50
2019-05-20T04:33:46.381Z,14.80
2019-05-20T04:36:18.217Z,13.75
2019-05-20T04:38:49.557Z,13.78
2019-05-20T04:41:21.776Z,15.93
2019-05-20T04:43:54.398Z,14.25
2019-05-20T04:46:26.133Z,13.15
2019-05-20T04:48:57.966Z,14.47
2019-05-20T04:51:32.378Z,14.78
2019-05-20T04:54:04.223Z,16.20
2019-05-20T04:56:36.067Z,13.35
2019-05-20T04:59:07.286Z,16.67
2019-05-20T05:01:42.681Z,14.85
2019-05-20T05:10:28.829Z,15.83
2019-05-20T05:12:59.961Z,15.18
2019-05-20T05:15:31.310Z,12.90
2019-05-20T05:18:02.510Z,17.23
2019-05-20T05:20:33.726Z,17.05
2019-05-20T05:23:05.265Z,14.78
2019-05-20T05:25:37.590Z,13.08
2019-05-20T05:28:11.244Z,12.53
2019-05-20T05:30:43.313Z,12.50
2019-05-20T05:33:14.571Z,11.45
2019-05-20T05:35:53.319Z,11.38
2019-05-20T05:38:19.853Z,10.40
2019-05-20T05:40:51.913Z,10.28
2019-05-20T05:43:23.004Z,10.88
2019-05-20T05:45:53.987Z,9.55
2019-05-20T05:48:26.404Z,10.03
2019-05-20T05:51:01.255Z,11.03
2019-05-20T05:53:32.168Z,10.08
2019-05-20T05:56:04.233Z,10.58
2019-05-20T05:58:35.352Z,11.08
2019-05-20T06:01:12.735Z,10.88
2019-05-20T06:03:44.765Z,10.95
2019-05-20T06:06:15.939Z,11.70
2019-05-20T06:08:46.998Z,10.88
2019-05-20T06:11:24.298Z,9.95
2019-05-20T06:14:13.865Z,10.23
2019-05-20T06:16:46.266Z,11.60
2019-05-20T06:19:17.525Z,13.60
2019-05-20T06:21:55.576Z,13.25
2019-05-20T06:24:34.394Z,11.88
2019-05-20T06:27:05.343Z,12.70
2019-05-20T06:29:36.738Z,13.00
2019-05-20T06:32:10.759Z,17.75
2019-05-20T06:34:42.984Z,17.92
2019-05-20T06:37:16.743Z,14.18
2019-05-20T06:39:50.744Z,12.45
2019-05-20T06:42:20.191Z,13.35
2019-05-20T06:44:53.885Z,15.75
2019-05-20T06:47:24.418Z,13.00
2019-05-20T06:49:57.864Z,16.42
2019-05-20T06:52:35.898Z,15.03
2019-05-20T06:55:10.367Z,13.40
2019-05-20T06:57:41.599Z,16.25
2019-05-20T07:00:13.385Z,14.50
2019-05-20T07:02:44.805Z,13.68
2019-05-20T07:05:16.119Z,14.07
2019-05-20T07:07:47.123Z,16.93
2019-05-20T07:10:21.737Z,14.90
2019-05-20T07:12:53.150Z,11.63
2019-05-20T07:15:24.459Z,12.53
2019-05-20T07:17:55.549Z,13.48
2019-05-20T07:20:26.527Z,15.80
2019-05-20T07:22:57.663Z,12.50
2019-05-20T07:25:31.927Z,15.35
2019-05-20T07:28:05.536Z,15.48
2019-05-20T07:30:36.967Z,15.80
2019-05-20T07:33:07.985Z,16.12
2019-05-20T07:35:38.849Z,16.37
2019-05-20T07:38:09.897Z,16.85
2019-05-20T07:40:55.506Z,16.77
2019-05-20T07:43:30.193Z,17.37
2019-05-20T07:46:02.425Z,25.52
2019-05-20T07:48:34.341Z,18.90
2019-05-20T07:51:07.162Z,16.97
2019-05-20T07:53:39.273Z,15.78
2019-05-20T07:56:12.707Z,20.70
2019-05-20T07:58:46.412Z,13.30
2019-05-20T08:01:18.223Z,12.85
2019-05-20T08:03:49.713Z,20.50
2019-05-20T08:06:22.549Z,16.50
2019-05-20T08:08:53.007Z,14.85
2019-05-20T08:11:27.760Z,15.55
2019-05-20T08:14:02.283Z,17.48
2019-05-20T08:16:34.410Z,14.25
2019-05-20T08:19:06.579Z,16.67
2019-05-20T08:21:39.995Z,13.03
2019-05-20T08:24:11.624Z,19.27
2019-05-20T08:26:43.056Z,14.70
2019-05-20T08:29:15.119Z,13.45
2019-05-20T08:31:46.185Z,16.52
2019-05-20T08:34:17.356Z,15.32
2019-05-20T08:43:10.030Z,11.35
2019-05-20T08:45:43.351Z,10.43
2019-05-20T08:48:44.301Z,11.45
2019-05-20T08:50:46.628Z,10.70
2019-05-20T08:53:20.237Z,11.10
2019-05-20T08:55:51.624Z,12.30
2019-05-20T08:58:22.622Z,11.95
2019-05-20T09:00:54.021Z,10.25
2019-05-20T09:03:29.983Z,10.78
2019-05-20T09:06:01.561Z,10.93
2019-05-20T09:08:32.621Z,11.50
2019-05-20T09:11:06.734Z,11.25
2019-05-20T09:13:43.163Z,11.28
2019-05-20T09:16:17.498Z,11.03
2019-05-20T09:18:48.305Z,11.73
2019-05-20T09:21:19.476Z,11.30
2019-05-20T09:23:52.285Z,11.28
2019-05-20T09:26:26.268Z,10.23
2019-05-20T09:28:57.295Z,10.40
2019-05-20T09:31:28.841Z,9.53
2019-05-20T09:34:06.611Z,11.00
2019-05-20T09:36:37.280Z,10.03
2019-05-20T09:39:10.100Z,9.98
2019-05-20T09:41:44.695Z,9.75
2019-05-20T09:44:23.989Z,10.08
2019-05-20T09:46:57.017Z,10.20
2019-05-20T09:49:29.106Z,9.78
2019-05-20T09:52:06.545Z,10.53
2019-05-20T09:54:39.421Z,10.32
2019-05-20T09:57:11.068Z,9.88
2019-05-20T09:59:47.212Z,10.03
2019-05-20T10:02:18.799Z,9.30
2019-05-20T10:04:49.805Z,9.45
2019-05-20T10:07:23.629Z,10.35
2019-05-20T10:09:57.546Z,11.03
2019-05-20T10:12:44.675Z,10.25
2019-05-20T10:15:01.680Z,9.35
2019-05-20T10:17:32.606Z,9.53
2019-05-20T10:20:09.049Z,9.63
2019-05-20T10:22:40.378Z,9.43
2019-05-20T10:25:11.679Z,9.65
2019-05-20T10:27:44.782Z,9.25
2019-05-20T10:30:15.274Z,9.28
2019-05-20T10:32:46.522Z,9.63
2019-05-20T10:35:17.536Z,9.75
2019-05-20T10:37:48.709Z,9.50
2019-05-20T10:40:19.817Z,9.70
2019-05-20T10:42:51.227Z,9.88
2019-05-20T10:45:23.325Z,10.00
2019-05-20T10:47:54.356Z,9.48
2019-05-20T10:50:25.431Z,9.43
2019-05-20T10:52:56.642Z,10.10
2019-05-20T10:55:27.805Z,10.85
2019-05-20T10:57:58.706Z,9.50
2019-05-20T11:00:33.080Z,10.23
2019-05-20T11:03:08.501Z,9.48
2019-05-20T11:05:49.024Z,10.28
2019-05-20T11:08:20.024Z,9.78
2019-05-20T11:10:51.430Z,10.68
2019-05-20T11:13:22.456Z,10.53
2019-05-20T11:15:59.976Z,17.12
2019-05-20T11:18:31.252Z,12.10
2019-05-20T11:21:02.190Z,17.10
2019-05-20T11:23:33.249Z,13.18
2019-05-20T11:26:04.686Z,16.20
2019-05-20T11:28:37.477Z,12.75
2019-05-20T11:31:08.329Z,12.30
2019-05-20T11:33:39.245Z,11.33
2019-05-20T11:36:10.428Z,11.83
2019-05-20T11:38:41.387Z,9.95
2019-05-20T11:41:12.686Z,11.83
2019-05-20T11:43:43.700Z,10.45
2019-05-20T11:46:15.549Z,10.88
2019-05-20T11:48:47.838Z,11.78
2019-05-20T11:51:18.962Z,11.28
2019-05-20T11:53:50.077Z,12.37
2019-05-20T11:56:21.005Z,10.90
2019-05-20T11:58:51.975Z,11.75
2019-05-20T12:01:22.853Z,11.95
2019-05-20T12:03:57.418Z,12.10
2019-05-20T12:06:28.389Z,12.88
2019-05-20T12:08:59.263Z,13.13
2019-05-20T12:11:30.343Z,13.05
2019-05-20T12:14:01.314Z,13.05
2019-05-20T12:16:32.446Z,13.78
2019-05-20T12:19:03.381Z,13.38
2019-05-20T12:21:35.734Z,14.10
2019-05-20T12:24:06.887Z,14.07
2019-05-20T12:26:37.702Z,14.33
2019-05-20T12:29:08.829Z,15.32
2019-05-20T12:31:39.836Z,14.68
2019-05-20T12:34:10.834Z,16.45
2019-05-20T12:36:42.111Z,14.83
2019-05-20T12:39:13.290Z,16.67
2019-05-20T12:41:44.157Z,16.12
2019-05-20T12:44:15.327Z,14.90
2019-05-20T12:46:46.447Z,15.35
2019-05-20T12:49:17.850Z,16.93
2019-05-20T12:51:48.937Z,15.10
2019-05-20T12:54:19.907Z,15.15
2019-05-20T12:56:50.981Z,15.48
2019-05-20T12:59:21.945Z,15.08
2019-05-20T13:01:52.970Z,14.85
2019-05-20T13:04:24.008Z,14.60
2019-05-20T13:06:55.098Z,15.18
2019-05-20T13:09:26.129Z,14.47
2019-05-20T13:11:57.180Z,14.38
2019-05-20T13:14:28.388Z,14.43
2019-05-20T13:16:59.438Z,16.02
2019-05-20T13:19:30.535Z,15.83
2019-05-20T13:22:01.605Z,15.63
2019-05-20T13:24:33.378Z,16.02
2019-05-20T13:27:04.589Z,15.28
2019-05-20T13:29:35.586Z,16.45
2019-05-20T13:32:06.865Z,15.80
2019-05-20T13:34:37.875Z,15.80
2019-05-20T13:37:08.882Z,16.45
2019-05-20T13:39:41.502Z,15.88
2019-05-20T13:42:12.395Z,16.05
2019-05-20T13:44:43.952Z,15.40
2019-05-20T13:47:15.063Z,16.23
2019-05-20T13:49:46.009Z,14.93
2019-05-20T13:52:17.177Z,15.35
2019-05-20T13:54:48.986Z,14.60
2019-05-20T13:57:20.013Z,16.12
2019-05-20T13:59:51.199Z,18.00
2019-05-20T14:02:30.724Z,18.32
2019-05-20T14:05:01.706Z,20.02
2019-05-20T14:07:32.828Z,19.85
2019-05-20T14:10:03.965Z,18.55
2019-05-20T14:12:35.230Z,18.00
2019-05-20T14:15:07.954Z,17.02
2019-05-20T14:17:39.379Z,16.30
2019-05-20T14:20:10.590Z,16.50
2019-05-20T14:22:41.648Z,15.43
2019-05-20T14:25:12.898Z,16.15
2019-05-20T14:27:43.829Z,17.45
2019-05-20T14:30:14.990Z,16.95
2019-05-20T14:32:46.193Z,16.95
2019-05-20T14:35:17.494Z,16.65
2019-05-20T14:37:48.424Z,18.55
2019-05-20T14:40:19.615Z,17.67
2019-05-20T14:42:51.021Z,16.87
2019-05-20T14:45:23.123Z,16.35
2019-05-20T14:47:54.083Z,17.95
2019-05-20T14:50:24.748Z,17.17
2019-05-20T14:52:55.813Z,18.12
2019-05-20T14:55:26.938Z,17.10
2019-05-20T14:57:57.972Z,17.98
2019-05-20T15:00:29.095Z,16.67
2019-05-20T15:03:00.011Z,17.52
2019-05-20T15:05:31.339Z,17.02
2019-05-20T15:08:02.757Z,16.57
2019-05-20T15:10:34.153Z,16.12
2019-05-20T15:13:05.159Z,16.80
2019-05-20T15:15:36.400Z,17.40
2019-05-20T15:18:07.401Z,16.32
2019-05-20T15:20:39.110Z,16.05
2019-05-20T15:23:10.839Z,15.70
2019-05-20T15:25:42.264Z,15.32
2019-05-20T15:28:13.109Z,15.48
2019-05-20T15:30:43.948Z,16.75
2019-05-20T15:33:15.011Z,15.63
2019-05-20T15:35:46.165Z,16.60
2019-05-20T15:38:16.956Z,15.60
2019-05-20T15:40:47.992Z,15.78
2019-05-20T15:43:19.154Z,14.15
2019-05-20T15:45:49.886Z,15.40
2019-05-20T15:48:20.961Z,12.60
2019-05-20T15:50:52.231Z,13.08
2019-05-20T15:53:22.907Z,12.18
2019-05-20T15:55:54.090Z,12.07
2019-05-20T15:58:25.357Z,12.35
2019-05-20T16:00:56.229Z,13.08
2019-05-20T16:03:27.507Z,12.75
2019-05-20T16:06:00.036Z,11.95
2019-05-20T16:08:30.807Z,12.47
2019-05-20T16:11:02.278Z,11.65
2019-05-20T16:13:34.514Z,11.10
2019-05-20T16:16:05.694Z,12.63
2019-05-20T16:18:36.794Z,11.30
2019-05-20T16:21:07.645Z,12.90
2019-05-20T16:23:38.920Z,12.23
2019-05-20T16:26:09.804Z,12.50
2019-05-20T16:28:40.891Z,11.55
2019-05-20T16:31:12.380Z,12.15
2019-05-20T16:33:43.516Z,12.55
2019-05-20T16:36:14.510Z,11.30
2019-05-20T16:38:45.425Z,11.78
2019-05-20T16:41:16.370Z,11.83
2019-05-20T16:43:47.558Z,12.30
2019-05-20T16:46:18.796Z,11.25
2019-05-20T16:48:49.675Z,11.15
2019-05-20T16:51:22.420Z,12.25
2019-05-20T16:53:52.898Z,11.75
2019-05-20T16:56:23.998Z,10.68
2019-05-20T16:58:55.038Z,12.03
2019-05-20T17:01:26.060Z,11.38
2019-05-20T17:03:57.233Z,11.48
2019-05-20T17:06:27.847Z,11.30
2019-05-20T17:08:59.345Z,10.80
2019-05-20T17:11:30.583Z,11.95
2019-05-20T17:14:02.511Z,10.98
2019-05-20T17:16:33.524Z,10.98
2019-05-20T17:19:04.617Z,10.55
2019-05-20T17:21:35.828Z,11.10
2019-05-20T17:24:07.278Z,10.00
2019-05-20T17:26:38.368Z,11.22
2019-05-20T17:29:09.467Z,11.85
2019-05-20T17:31:40.674Z,11.80
2019-05-20T17:34:11.634Z,11.48
2019-05-20T17:36:42.406Z,10.72
2019-05-20T17:39:13.616Z,11.95
2019-05-20T17:41:44.453Z,13.03
2019-05-20T17:44:15.652Z,11.22
2019-05-20T17:46:46.573Z,12.20
2019-05-20T17:49:17.706Z,11.53
2019-05-20T17:51:48.867Z,11.20
2019-05-20T17:54:19.883Z,11.10
2019-05-20T17:56:50.928Z,11.35
2019-05-20T17:59:21.846Z,11.75
2019-05-20T18:01:52.974Z,11.33
2019-05-20T18:04:24.186Z,12.13
2019-05-20T18:06:55.007Z,11.15
2019-05-20T18:09:27.331Z,11.48
2019-05-20T18:11:58.872Z,11.95
2019-05-20T18:14:29.631Z,12.10
2019-05-20T18:17:01.874Z,11.12
2019-05-20T18:19:33.138Z,11.22
2019-05-20T18:22:03.970Z,10.98
2019-05-20T18:24:35.033Z,11.25
2019-05-20T18:27:06.384Z,10.85
2019-05-20T18:29:37.217Z,12.50
2019-05-20T18:32:08.245Z,12.75
2019-05-20T18:34:39.323Z,11.50
2019-05-20T18:37:10.346Z,12.98
2019-05-20T18:39:41.134Z,11.68
2019-05-20T18:42:12.227Z,12.98
2019-05-20T18:44:43.195Z,12.15
2019-05-20T18:47:14.079Z,13.00
2019-05-20T18:49:45.320Z,12.58
2019-05-20T18:52:16.382Z,12.43
2019-05-20T18:54:47.240Z,12.63
2019-05-20T18:57:18.642Z,12.65
2019-05-20T18:59:49.559Z,12.53
2019-05-20T19:02:20.628Z,12.93
2019-05-20T19:04:51.652Z,13.10
2019-05-20T19:07:22.598Z,13.15
2019-05-20T19:09:53.470Z,12.58
2019-05-20T19:12:24.524Z,12.15
2019-05-20T19:14:55.551Z,11.00
2019-05-20T19:17:26.504Z,12.35
2019-05-20T19:19:57.659Z,12.95
2019-05-20T19:22:28.669Z,13.00
2019-05-20T19:24:59.510Z,12.33
2019-05-20T19:27:30.148Z,12.40
2019-05-20T19:30:01.244Z,12.05
2019-05-20T19:32:32.560Z,11.57
2019-05-20T19:35:04.800Z,11.90
2019-05-20T19:37:36.014Z,12.30
2019-05-20T19:40:08.674Z,11.40
2019-05-20T19:42:40.027Z,11.80
2019-05-20T19:45:11.621Z,11.38
2019-05-20T19:47:42.782Z,11.10
2019-05-20T19:50:14.266Z,11.40
2019-05-20T19:52:45.017Z,11.88
2019-05-20T19:55:18.848Z,11.48
2019-05-20T19:57:48.687Z,11.53
2019-05-20T20:00:21.022Z,11.35
2019-05-20T20:02:52.017Z,12.15
2019-05-20T20:05:23.161Z,13.28
2019-05-20T20:07:54.483Z,12.43
2019-05-20T20:10:25.677Z,13.45
2019-05-20T20:12:56.618Z,13.90
2019-05-20T20:15:27.585Z,12.25
2019-05-20T20:17:58.711Z,12.93
2019-05-20T20:20:29.881Z,12.95
2019-05-20T20:23:01.410Z,13.20
2019-05-20T20:25:32.435Z,13.18
2019-05-20T20:28:03.690Z,13.38
2019-05-20T20:30:34.510Z,12.63
2019-05-20T20:33:05.743Z,13.08
2019-05-20T20:35:38.313Z,13.65
2019-05-20T20:38:09.014Z,13.88
2019-05-20T20:40:40.163Z,13.75
2019-05-20T20:43:10.974Z,13.75
2019-05-20T20:45:42.047Z,13.58
2019-05-20T20:48:14.678Z,13.58
2019-05-20T20:50:45.954Z,14.83
2019-05-20T20:53:17.365Z,13.85
2019-05-20T20:55:48.597Z,13.68
2019-05-20T20:58:19.740Z,13.68
2019-05-20T21:00:50.516Z,14.13
2019-05-20T21:03:21.631Z,14.30
2019-05-20T21:05:52.538Z,14.10
2019-05-20T21:08:23.453Z,14.85
2019-05-20T21:10:54.684Z,15.15
2019-05-20T21:13:25.917Z,13.65
2019-05-20T21:15:58.545Z,14.95
2019-05-20T21:18:29.014Z,14.28
2019-05-20T21:21:00.206Z,15.70
2019-05-20T21:23:31.105Z,14.23
2019-05-20T21:26:02.230Z,15.58
2019-05-20T21:28:36.173Z,15.80
2019-05-20T21:31:07.380Z,14.05
2019-05-20T21:33:38.422Z,15.32
2019-05-20T21:36:10.279Z,15.50
2019-05-20T21:38:41.362Z,15.90
2019-05-20T21:41:12.337Z,15.38
2019-05-20T21:43:43.292Z,15.95
2019-05-20T21:46:14.112Z,15.50
2019-05-20T21:48:45.004Z,14.50
2019-05-20T21:51:15.948Z,16.00
2019-05-20T21:53:47.246Z,15.05
2019-05-20T21:56:18.196Z,14.83
2019-05-20T21:58:49.141Z,15.25
2019-05-20T22:01:20.282Z,16.05
2019-05-20T22:03:52.066Z,15.55
2019-05-20T22:06:23.404Z,16.37
2019-05-20T22:08:54.434Z,16.73
2019-05-20T22:11:25.249Z,15.43
2019-05-20T22:13:56.135Z,15.32
2019-05-20T22:16:29.747Z,15.88
2019-05-20T22:19:00.485Z,15.70
2019-05-20T22:21:32.517Z,15.70
2019-05-20T22:24:05.009Z,15.55
2019-05-20T22:26:36.003Z,15.80
2019-05-20T22:29:07.133Z,15.55
2019-05-20T22:31:39.226Z,16.50
2019-05-20T22:34:10.516Z,15.95
2019-05-20T22:36:41.368Z,16.15
2019-05-20T22:39:12.154Z,15.65
2019-05-20T22:41:43.412Z,15.40
2019-05-20T22:44:14.466Z,16.90
2019-05-20T22:46:45.425Z,16.82
2019-05-20T22:49:16.467Z,15.55
2019-05-20T22:51:47.565Z,16.00
2019-05-20T22:54:18.658Z,16.00
2019-05-20T22:56:49.788Z,15.53
2019-05-20T22:59:20.848Z,15.83
2019-05-20T23:01:51.842Z,16.62
2019-05-20T23:04:22.982Z,16.82
2019-05-20T23:06:55.198Z,15.95
2019-05-20T23:09:26.069Z,16.17
2019-05-20T23:11:57.143Z,16.85
2019-05-20T23:14:28.138Z,16.62
2019-05-20T23:16:59.079Z,16.87
2019-05-20T23:19:29.999Z,17.65
2019-05-20T23:22:01.103Z,16.48
2019-05-20T23:24:32.264Z,17.73
2019-05-20T23:27:04.247Z,17.60
2019-05-20T23:29:34.879Z,17.92
2019-05-20T23:32:06.853Z,17.70
2019-05-20T23:34:38.140Z,17.52
2019-05-20T23:37:09.116Z,18.70
2019-05-20T23:39:40.052Z,17.02
2019-05-20T23:42:11.235Z,15.53
2019-05-20T23:44:42.253Z,16.25
2019-05-20T23:47:13.425Z,17.57
2019-05-20T23:49:54.813Z,17.55
2019-05-20T23:52:25.475Z,17.67
2019-05-20T23:54:56.357Z,17.90
2019-05-20T23:57:27.411Z,18.30
2019-05-20T23:59:58.483Z,19.62
